Flight Track Log - Related Links

Times and Time Zones

All times are in EDT time to prevent confusion due to time zone crossing. See the N853UA flight status page for this flight to view local times or setup timezone preferences in your user account.

Time Position Orientation Groundspeed Altitude Reporting Facility
EDT Latitude Longitude Course Direction KTS MPH feet Rate Location/Type
Sat 02:54:05 PM 42.1994 -83.3581 197° South 157 181 1,300  Level Cleveland Center
Sat 02:59:51 PM 41.7867 -83.5242 200° South 339 390 16,800 2,616 Climbing Cleveland Center
Sat 03:00:51 PM 41.6917 -83.5697 192° South 354 407 19,000 2,200 Climbing Cleveland Center
Sat 03:01:51 PM 41.5931 -83.5986 192° South 365 420 21,200 2,150 Climbing Cleveland Center
Sat 03:02:51 PM 41.4878 -83.6297 203° Southwest 378 435 23,300 1,850 Climbing Cleveland Center
Sat 03:03:51 PM 41.3819 -83.6883 209° Southwest 384 442 24,900 1,500 Climbing Cleveland Center
Sat 03:04:51 PM 41.2842 -83.7611 209° Southwest 392 451 26,300 1,550 Climbing Cleveland Center
Sat 03:05:51 PM 41.1839 -83.8361 208° Southwest 409 471 28,000 1,605 Climbing Cleveland Center
Sat 03:07:28 PM 41.0214 -83.9503 208° Southwest 399 459 30,500 1,376 Climbing Indianapolis Center
Sat 03:08:28 PM 40.9192 -84.0211 201° Southwest 421 484 31,600 1,250 Climbing Indianapolis Center
Sat 03:09:28 PM 40.8042 -84.0806 196° South 426 490 33,000 1,650 Climbing Indianapolis Center
Sat 03:10:28 PM 40.6936 -84.1236 199° South 431 496 34,900 1,050 Climbing Indianapolis Center
Sat 03:11:28 PM 40.5872 -84.1719 198° South 417 480 35,100 750 Climbing Indianapolis Center
Sat 03:12:28 PM 40.4828 -84.2175 199° South 412 474 36,400 1,350 Climbing Indianapolis Center
Sat 03:13:28 PM 40.3781 -84.2653 224° Southwest 398 458 37,800 750 Climbing Indianapolis Center
Sat 03:14:28 PM 40.2983 -84.3653 229° Southwest 391 450 37,900 100 Climbing Indianapolis Center
Sat 03:15:28 PM 40.2267 -84.4733 228° Southwest 400 460 38,000 50 Climbing Indianapolis Center
Sat 03:16:28 PM 40.1508 -84.5836 229° Southwest 412 474 38,000 -50 Level Indianapolis Center
Sat 03:17:28 PM 40.0853 -84.6831 228° Southwest 412 474 37,900  Descending Indianapolis Center
Sat 03:18:29 PM 40.0092 -84.7931 229° Southwest 412 474 38,000 50 Climbing Indianapolis Center
Sat 03:19:28 PM 39.9286 -84.9133 228° Southwest 412 474 38,000  Level Indianapolis Center
Sat 03:20:28 PM 39.8606 -85.0122 229° Southwest 412 474 38,000  Level Indianapolis Center
Sat 03:21:28 PM 39.7864 -85.1242 228° Southwest 412 474 38,000  Level Indianapolis Center
Sat 03:22:28 PM 39.7097 -85.2331 230° Southwest 412 474 38,000  Level Indianapolis Center
Sat 03:23:28 PM 39.6372 -85.3444 228° Southwest 412 474 38,000  Level Indianapolis Center
Sat 03:24:28 PM 39.5606 -85.4531 229° Southwest 412 474 38,000  Level Indianapolis Center
Sat 03:25:28 PM 39.4814 -85.5692 228° Southwest 423 487 38,000  Level Indianapolis Center
Sat 03:26:28 PM 39.3981 -85.6906 228° Southwest 423 487 38,000  Level Indianapolis Center
Sat 03:27:28 PM 39.3208 -85.8008 229° Southwest 423 487 38,000  Level Indianapolis Center
Sat 03:28:28 PM 39.2458 -85.9111 228° Southwest 423 487 38,000  Level Indianapolis Center
Sat 03:29:28 PM 39.1683 -86.0211 229° Southwest 423 487 38,000  Level Indianapolis Center
Sat 03:30:28 PM 39.1147 -86.0994 228° Southwest 423 487 38,000  Level Indianapolis Center
Sat 03:31:28 PM 39.0156 -86.2403 228° Southwest 423 487 38,000  Level Indianapolis Center
Sat 03:32:28 PM 38.9486 -86.3367 229° Southwest 418 481 38,000  Level Indianapolis Center
Sat 03:33:28 PM 38.8772 -86.4433 229° Southwest 412 474 38,000  Level Indianapolis Center
Sat 03:34:28 PM 38.8014 -86.5550 227° Southwest 407 468 38,000  Level Indianapolis Center
Sat 03:35:28 PM 38.7236 -86.6608 227° Southwest 407 468 38,000 50 Level Indianapolis Center
Sat 03:36:28 PM 38.6478 -86.7667 228° Southwest 407 468 38,100  Climbing Indianapolis Center
Sat 03:37:28 PM 38.5739 -86.8722 227° Southwest 407 468 38,000 -50 Descending Indianapolis Center
Sat 03:38:28 PM 38.5000 -86.9750 225° Southwest 407 468 38,000  Level Indianapolis Center
Sat 03:39:28 PM 38.4114 -87.0875 228° Southwest 402 463 38,000  Level Indianapolis Center
Sat 03:40:28 PM 38.3394 -87.1900 232° Southwest 409 471 38,000  Level Indianapolis Center
Sat 03:41:28 PM 38.2756 -87.2925 227° Southwest 410 472 38,000  Level Indianapolis Center
Sat 03:42:28 PM 38.2014 -87.3919 226° Southwest 404 465 38,000  Level Indianapolis Center
Sat 03:43:28 PM 38.1253 -87.4936 228° Southwest 399 459 38,000  Level Indianapolis Center
Sat 03:44:28 PM 38.0506 -87.5978 228° Southwest 399 459 38,000  Level Indianapolis Center
Sat 03:47:08 PM 37.8528 -87.8756 231° Southwest 399 459 38,000  Level Memphis Center
Sat 03:48:08 PM 37.7819 -87.9881 229° Southwest 393 452 38,000  Level Memphis Center
Sat 03:49:08 PM 37.7089 -88.0925 229° Southwest 393 452 38,000  Level Memphis Center
Sat 03:50:08 PM 37.6381 -88.1967 228° Southwest 393 452 38,000  Level Memphis Center
Sat 03:51:08 PM 37.5647 -88.2981 228° Southwest 393 452 38,000  Level Memphis Center
Sat 03:52:08 PM 37.4914 -88.3992 230° Southwest 393 452 38,000  Level Memphis Center
Sat 03:53:08 PM 37.4200 -88.5056 227° Southwest 398 458 38,000  Level Memphis Center
Sat 03:54:08 PM 37.3467 -88.6036 230° Southwest 398 458 38,000  Level Memphis Center
Sat 03:55:08 PM 37.2750 -88.7094 227° Southwest 398 458 38,000  Level Memphis Center
Sat 03:56:08 PM 37.2014 -88.8100 228° Southwest 398 458 38,000  Level Memphis Center
Sat 03:57:08 PM 37.1297 -88.9103 228° Southwest 398 458 38,000  Level Memphis Center
Sat 03:58:08 PM 37.0578 -89.0103 229° Southwest 398 458 38,000  Level Memphis Center
Sat 03:59:08 PM 37.0003 -89.0919 229° Southwest 398 458 38,000  Level Memphis Center
Sat 04:00:08 PM 36.9183 -89.2100 227° Southwest 392 451 38,000  Level Memphis Center
Sat 04:01:08 PM 36.8461 -89.3069 228° Southwest 392 451 38,000  Level Memphis Center
Sat 04:02:08 PM 36.7761 -89.4036 229° Southwest 387 445 38,000  Level Memphis Center
Sat 04:03:08 PM 36.7058 -89.5056 227° Southwest 387 445 38,000  Level Memphis Center
Sat 04:04:08 PM 36.6336 -89.6019 228° Southwest 387 445 38,000  Level Memphis Center
Sat 04:05:08 PM 36.5592 -89.7033 227° Southwest 387 445 38,000  Level Memphis Center
Sat 04:06:08 PM 36.4867 -89.7994 227° Southwest 392 451 38,000  Level Memphis Center
Sat 04:07:08 PM 36.4119 -89.8981 228° Southwest 392 451 38,000  Level Memphis Center
Sat 04:08:08 PM 36.3456 -89.9911 227° Southwest 402 463 38,000  Level Memphis Center
Sat 04:09:08 PM 36.2708 -90.0892 228° Southwest 402 463 38,000  Level Memphis Center
Sat 04:10:08 PM 36.1961 -90.1925 226° Southwest 402 463 38,000  Level Memphis Center
Sat 04:11:08 PM 36.1211 -90.2903 228° Southwest 397 457 38,000  Level Memphis Center
Sat 04:12:08 PM 36.0481 -90.3903 226° Southwest 397 457 38,000  Level Memphis Center
Sat 04:13:08 PM 35.9731 -90.4878 228° Southwest 397 457 38,000  Level Memphis Center
Sat 04:14:08 PM 35.8914 -90.5978 228° Southwest 397 457 38,000  Level Memphis Center
Sat 04:15:08 PM 35.8183 -90.6975 226° Southwest 397 457 38,000  Level Memphis Center
Sat 04:16:08 PM 35.7431 -90.7919 229° Southwest 397 457 38,000  Level Memphis Center
Sat 04:17:08 PM 35.6758 -90.8886 228° Southwest 391 450 38,000  Level Memphis Center
Sat 04:18:08 PM 35.6044 -90.9853 227° Southwest 386 444 38,000  Level Memphis Center
Sat 04:19:08 PM 35.5289 -91.0842 226° Southwest 386 444 38,000  Level Memphis Center
Sat 04:20:08 PM 35.4575 -91.1753 226° Southwest 391 450 38,000  Level Memphis Center
Sat 04:21:08 PM 35.3836 -91.2689 226° Southwest 384 442 38,000  Level Memphis Center
Sat 04:22:08 PM 35.3100 -91.3622 207° Southwest 389 448 38,000  Level Memphis Center
Sat 04:23:08 PM 35.2114 -91.4244 204° Southwest 389 448 38,000  Level Memphis Center
Sat 04:24:08 PM 35.1108 -91.4789 205° Southwest 389 448 38,000  Level Memphis Center
Sat 04:25:08 PM 35.0144 -91.5336 205° Southwest 394 453 38,000  Level Memphis Center
Sat 04:26:08 PM 34.9158 -91.5906 206° Southwest 389 448 38,000  Level Memphis Center
Sat 04:27:08 PM 34.8256 -91.6447 206° Southwest 399 459 38,000  Level Memphis Center
Sat 04:28:08 PM 34.7247 -91.7039 203° Southwest 394 453 38,000  Level Memphis Center
Sat 04:29:08 PM 34.6094 -91.7628 204° Southwest 399 459 38,000  Level Memphis Center
Sat 04:30:08 PM 34.5086 -91.8164 205° Southwest 404 465 38,000  Level Memphis Center
Sat 04:31:08 PM 34.4078 -91.8728 204° Southwest 404 465 38,000  Level Memphis Center
Sat 04:32:08 PM 34.3175 -91.9214 206° Southwest 404 465 38,000  Level Memphis Center
Sat 04:33:08 PM 34.2186 -91.9797 203° Southwest 399 459 38,000  Level Memphis Center
Sat 04:34:08 PM 34.1242 -92.0283 205° Southwest 394 453 38,000  Level Memphis Center
Sat 04:35:08 PM 34.0231 -92.0864 204° Southwest 381 438 38,000  Level Memphis Center
Sat 04:36:08 PM 33.9242 -92.1394 203° Southwest 375 432 38,000  Level Memphis Center
Sat 04:37:10 PM 33.8289 -92.1881 204° Southwest 388 447 38,000  Level Fort Worth Center
Sat 04:38:10 PM 33.7267 -92.2417 205° Southwest 383 441 38,000  Level Fort Worth Center
Sat 04:39:10 PM 33.6308 -92.2947 204° Southwest 388 447 38,000  Level Fort Worth Center
Sat 04:40:10 PM 33.5328 -92.3478 204° Southwest 388 447 38,000  Level Fort Worth Center
Sat 04:41:10 PM 33.4347 -92.4006 194° South 393 452 38,000  Level Fort Worth Center
Sat 04:42:10 PM 33.3317 -92.4314 188° South 388 447 38,000  Level Fort Worth Center
Sat 04:43:10 PM 33.2217 -92.4497 189° South 394 453 38,000  Level Fort Worth Center
Sat 04:44:10 PM 33.1142 -92.4708 187° South 394 453 38,000  Level Fort Worth Center
Sat 04:45:10 PM 33.0061 -92.4867 189° South 394 453 38,000  Level Fort Worth Center
Sat 04:46:10 PM 32.8964 -92.5075 189° South 394 453 38,000  Level Fort Worth Center
Sat 04:47:10 PM 32.7886 -92.5283 191° South 399 459 38,000  Level Fort Worth Center
Sat 04:48:50 PM 32.6233 -92.5647 187° South 385 443 38,000 -38 Level Houston Center
Sat 04:49:50 PM 32.5169 -92.5811 190° South 385 443 37,900 -50 Descending Houston Center
Sat 04:50:50 PM 32.4125 -92.6022 187° South 385 443 37,900 50 Level Houston Center
Sat 04:51:50 PM 32.3039 -92.6183 189° South 391 450 38,000 50 Climbing Houston Center
Sat 04:52:50 PM 32.1997 -92.6369 189° South 391 450 38,000  Level Houston Center
Sat 04:53:50 PM 32.0931 -92.6578 191° South 391 450 38,000  Level Houston Center
Sat 04:54:50 PM 31.9908 -92.6814 213° Southwest 391 450 38,000 -50 Level Houston Center
Sat 04:55:50 PM 31.9047 -92.7464 220° Southwest 375 432 37,900 -50 Descending Houston Center
Sat 04:56:50 PM 31.8228 -92.8261 219° Southwest 380 437 37,900  Level Houston Center
Sat 04:57:50 PM 31.7428 -92.9033 219° Southwest 380 437 37,900 50 Level Houston Center
Sat 04:58:50 PM 31.6608 -92.9803 220° Southwest 380 437 38,000 50 Climbing Houston Center
Sat 04:59:50 PM 31.5806 -93.0594 219° Southwest 380 437 38,000  Level Houston Center
Sat 05:00:50 PM 31.4986 -93.1361 220° Southwest 380 437 38,000  Level Houston Center
Sat 05:01:50 PM 31.4142 -93.2200 219° Southwest 387 445 38,000 -150 Level Houston Center
Sat 05:02:50 PM 31.3233 -93.3061 220° Southwest 387 445 37,700 -600 Descending Houston Center
Sat 05:03:50 PM 31.2517 -93.3753 219° Southwest 387 445 36,800 -950 Descending Houston Center
Sat 05:04:50 PM 31.1672 -93.4542 219° Southwest 387 445 35,800 -1,000 Descending Houston Center
Sat 05:05:50 PM 31.0806 -93.5350 219° Southwest 387 445 34,800 -1,200 Descending Houston Center
Sat 05:06:50 PM 30.9958 -93.6156 219° Southwest 392 451 33,400 -1,850 Descending Houston Center
Sat 05:07:50 PM 30.9092 -93.6964 220° Southwest 397 457 31,100 -2,300 Descending Houston Center
Sat 05:08:50 PM 30.8244 -93.7792 219° Southwest 402 463 28,800 -2,250 Descending Houston Center
Sat 05:09:50 PM 30.7417 -93.8572 219° Southwest 397 457 26,600 -2,150 Descending Houston Center
Sat 05:10:50 PM 30.6611 -93.9328 219° Southwest 392 451 24,500 -2,150 Descending Houston Center
Sat 05:11:50 PM 30.5806 -94.0081 219° Southwest 385 443 22,300 -2,150 Descending Houston Center
Sat 05:12:50 PM 30.5042 -94.0786 218° Southwest 375 432 20,200 -2,250 Descending Houston Center
Sat 05:13:50 PM 30.4172 -94.1583 220° Southwest 370 426 17,800 -2,202 Descending Houston Center
Sat 05:14:39 PM 30.3536 -94.2194 219° Southwest 347 399 16,200 -2,000 Descending Houston Center
Sat 05:15:50 PM 30.2706 -94.2967 221° Southwest 352 405 13,800 -1,924 Descending Houston Center
Sat 05:16:50 PM 30.2047 -94.3622 253° West 340 391 12,000 -1,100 Descending Houston Center
Sat 05:17:50 PM 30.1797 -94.4578 244° Southwest 310 357 11,600 -650 Descending Houston Center
Sat 05:18:50 PM 30.1489 -94.5311 246° West 299 344 10,700 -1,250 Descending Houston Center
Sat 05:19:50 PM 30.1181 -94.6119 246° West 294 338 9,100 -1,550 Descending Houston Center
Sat 05:20:50 PM 30.0869 -94.6928 251° West 284 327 7,600 -1,050 Descending Houston Center
Sat 05:21:50 PM 30.0622 -94.7736 250° West 272 313 7,000 -650 Descending Houston Center
Sat 05:22:50 PM 30.0375 -94.8519 252° West 267 307 6,300 -1,217 Descending Houston Center
Sat 05:24:13 PM 30.0033 -94.9731 250° West 261 300 4,100 -1,150 Descending Houston Center
Sat 05:24:50 PM 29.9919 -95.0089 270° West 267 307 4,000 -742 Descending Houston Center
Sat 05:25:50 PM 29.9922 -95.0758 271° West 247 284 2,900 -650 Descending Houston Center
Sat 05:26:50 PM 29.9928 -95.1431 271° West 224 258 2,700 -350 Descending Houston Center
Sat 05:27:50 PM 29.9933 -95.2031 271° West 205 236 2,200 -500 Descending Houston Center

Login

Don't have an account? Register now (free) for customized features, flight alerts, and more!